Wolgastern — CQLH — position and weather

sailwx.info

Track history (hours):
 
Tides and Currents Weather Stations Pressure Air Temp Water Temp Dewpoint Dewpoint Depression Visibility Wind Speed Wind Dir Waves Ship Positions

Wolgastern

Last reported at 2015-May-18 04:33 UTC. Time now 2015-May-26 13:53 UTC.
Position N 54°08' W 005°13'.
Warning: this ship's position is 8 days out of date.

Length 162 m; draft 8.8 m.

Type: Ship. MMSI: 255804950.

Date/timePositionNaut miles runAvg speedWind from/ knotsBaromVisibWave heightAir tempDewpointWater temp
2015-May-18 04:33N 54°08' W 005°13'1311.5
2015-May-18 03:26N 54°21' W 005°13'910.7
2015-May-18 02:34N 54°30' W 005°13'9 9.4
2015-May-18 01:34N 54°39' W 005°15'10 9.6
2015-May-18 00:34N 54°48' W 005°24'1010.1
2015-May-17 23:33N 54°56' W 005°34'1411.6
2015-May-17 22:20N 55°07' W 005°49'1013.5
2015-May-17 21:33N 55°16' W 005°59'1313.0
2015-May-17 20:33N 55°23' W 006°19'1313.1
2015-May-17 19:33N 55°29' W 006°39'1413.7
2015-May-17 18:33N 55°38' W 006°56'178 7.1
2015-May-16 17:33N 58°36' W 006°38'  
Track history (hours):
 
Tides and Currents Weather Stations Pressure Air Temp Water Temp Dewpoint Dewpoint Depression Visibility Wind Speed Wind Dir Waves Ship Positions

Wolgastern

Last reported at 2015-May-18 04:33 UTC. Time now 2015-May-26 13:53 UTC.
Position N 54°08' W 005°13'.
Warning: this ship's position is 8 days out of date.

Length 162 m; draft 8.8 m.

Type: Ship. MMSI: 255804950.

Date/timePositionNaut miles runAvg speedWind from/ knotsBaromVisibWave heightAir tempDewpointWater temp
2015-May-18 04:33N 54°08' W 005°13'1311.5
2015-May-18 03:26N 54°21' W 005°13'910.7
2015-May-18 02:34N 54°30' W 005°13'9 9.4
2015-May-18 01:34N 54°39' W 005°15'10 9.6
2015-May-18 00:34N 54°48' W 005°24'1010.1
2015-May-17 23:33N 54°56' W 005°34'1411.6
2015-May-17 22:20N 55°07' W 005°49'1013.5
2015-May-17 21:33N 55°16' W 005°59'1313.0
2015-May-17 20:33N 55°23' W 006°19'1313.1
2015-May-17 19:33N 55°29' W 006°39'1413.7
2015-May-17 18:33N 55°38' W 006°56'178 7.1
2015-May-16 17:33N 58°36' W 006°38'  

Dump ship's entire track history